createdAt,value
2023-02-16T00:01:17.349Z,4.84
2023-02-16T00:03:46.003Z,4.86
2023-02-16T00:06:16.958Z,4.88
2023-02-16T00:08:48.053Z,4.89
2023-02-16T00:11:50.051Z,4.82
2023-02-16T00:14:17.390Z,4.82
2023-02-16T00:16:44.280Z,4.83
2023-02-16T00:19:18.179Z,4.83
2023-02-16T00:21:45.808Z,4.87
2023-02-16T00:24:12.587Z,4.86
2023-02-16T00:26:41.560Z,4.85
2023-02-16T00:29:14.593Z,4.81
2023-02-16T00:31:42.849Z,4.80
2023-02-16T00:34:29.635Z,4.82
2023-02-16T00:37:00.461Z,4.79
2023-02-16T00:39:29.999Z,4.66
2023-02-16T00:42:01.186Z,4.73
2023-02-16T00:44:30.834Z,4.69
2023-02-16T00:47:14.286Z,4.73
2023-02-16T00:49:42.117Z,4.62
2023-02-16T00:52:46.339Z,4.69
2023-02-16T00:55:18.627Z,4.61
2023-02-16T00:57:56.338Z,4.59
2023-02-16T01:00:30.291Z,4.69
2023-02-16T01:03:01.386Z,4.58
2023-02-16T01:05:30.180Z,4.75
2023-02-16T01:08:16.651Z,4.61
2023-02-16T01:10:59.278Z,4.58
2023-02-16T01:13:29.154Z,4.59
2023-02-16T01:15:57.451Z,4.57
2023-02-16T01:18:24.157Z,4.54
2023-02-16T01:20:50.745Z,4.52
2023-02-16T01:23:17.442Z,4.54
2023-02-16T01:25:44.189Z,4.54
2023-02-16T01:28:22.746Z,4.68
2023-02-16T01:30:50.812Z,4.52
2023-02-16T01:33:17.609Z,4.50
2023-02-16T01:35:44.551Z,4.57
2023-02-16T01:38:23.890Z,4.57
2023-02-16T01:41:03.100Z,4.40
2023-02-16T01:43:35.596Z,4.53
2023-02-16T01:46:07.980Z,4.47
2023-02-16T01:48:34.945Z,4.45
2023-02-16T01:51:14.752Z,4.51
2023-02-16T01:53:53.806Z,4.61
2023-02-16T01:56:46.535Z,4.48
2023-02-16T01:59:44.391Z,4.33
2023-02-16T02:02:22.668Z,4.39
2023-02-16T02:05:13.993Z,4.37
2023-02-16T02:07:56.302Z,4.30
2023-02-16T02:10:47.911Z,4.24
2023-02-16T02:13:28.238Z,4.28
2023-02-16T02:15:58.225Z,4.22
2023-02-16T02:18:25.058Z,4.08
2023-02-16T02:21:27.821Z,4.25
2023-02-16T02:27:52.475Z,4.27
2023-02-16T02:30:56.893Z,4.31
2023-02-16T02:33:29.324Z,4.26
2023-02-16T02:36:04.176Z,4.35
2023-02-16T02:38:44.744Z,4.16
2023-02-16T02:42:04.003Z,4.18
2023-02-16T02:44:33.713Z,4.27
2023-02-16T02:47:00.312Z,4.20
2023-02-16T02:49:26.941Z,4.18
2023-02-16T02:51:53.749Z,4.17
2023-02-16T02:54:47.490Z,4.14
2023-02-16T02:57:59.372Z,4.19
2023-02-16T03:00:47.510Z,4.21
2023-02-16T03:03:38.111Z,4.19
2023-02-16T03:06:17.336Z,4.19
2023-02-16T03:08:48.586Z,4.24
2023-02-16T03:11:48.204Z,4.30
2023-02-16T03:14:19.919Z,4.36
2023-02-16T03:17:12.352Z,4.37
2023-02-16T03:20:01.442Z,4.34
2023-02-16T03:22:47.499Z,4.43
2023-02-16T03:25:32.973Z,4.58
2023-02-16T03:28:21.412Z,4.75
2023-02-16T03:30:50.469Z,4.40
2023-02-16T03:33:17.925Z,4.44
2023-02-16T03:35:46.514Z,4.38
2023-02-16T03:38:13.822Z,4.53
2023-02-16T03:40:42.846Z,4.55
2023-02-16T03:43:09.556Z,4.50
2023-02-16T03:45:39.697Z,4.60
2023-02-16T03:48:06.873Z,4.61
2023-02-16T03:50:33.744Z,4.67
2023-02-16T03:53:09.667Z,4.59
2023-02-16T03:55:42.596Z,4.71
2023-02-16T03:58:11.768Z,4.54
2023-02-16T04:00:39.155Z,4.57
2023-02-16T04:03:06.816Z,4.52
2023-02-16T04:05:33.846Z,4.62
2023-02-16T04:08:00.856Z,4.56
2023-02-16T04:10:28.110Z,4.59
2023-02-16T04:12:54.851Z,4.61
2023-02-16T04:15:26.352Z,4.76
2023-02-16T04:17:54.395Z,4.71
2023-02-16T04:20:24.329Z,4.72
2023-02-16T04:22:51.354Z,4.65
2023-02-16T04:25:19.564Z,4.66
2023-02-16T04:27:47.623Z,4.68
2023-02-16T04:30:18.059Z,4.74
2023-02-16T04:32:45.047Z,4.63
2023-02-16T04:35:11.685Z,4.69
2023-02-16T04:37:38.486Z,4.63
2023-02-16T04:40:07.153Z,4.78
2023-02-16T04:42:34.020Z,4.85
2023-02-16T04:45:00.610Z,4.69
2023-02-16T04:47:27.286Z,4.75
2023-02-16T04:49:54.588Z,4.69
2023-02-16T04:52:21.326Z,4.68
2023-02-16T04:54:48.056Z,4.75
2023-02-16T04:57:15.520Z,4.82
2023-02-16T04:59:42.259Z,4.77
2023-02-16T05:02:08.914Z,4.81
2023-02-16T05:04:35.824Z,4.82
2023-02-16T05:07:02.623Z,4.95
2023-02-16T05:09:29.307Z,5.22
2023-02-16T05:12:14.755Z,5.26
2023-02-16T05:14:47.517Z,5.12
2023-02-16T05:17:32.556Z,5.00
2023-02-16T05:20:01.760Z,5.00
2023-02-16T05:22:28.978Z,5.07
2023-02-16T05:24:55.668Z,4.99
2023-02-16T05:27:27.431Z,5.02
2023-02-16T05:29:54.601Z,4.96
2023-02-16T05:32:22.002Z,5.01
2023-02-16T05:34:48.730Z,5.03
2023-02-16T05:37:17.753Z,4.96
2023-02-16T05:39:44.568Z,5.07
2023-02-16T05:42:11.416Z,5.17
2023-02-16T05:44:38.162Z,5.10
2023-02-16T05:47:05.436Z,4.94
2023-02-16T05:49:32.214Z,5.04
2023-02-16T05:51:58.948Z,5.12
2023-02-16T05:54:25.916Z,5.08
2023-02-16T05:56:53.586Z,5.02
2023-02-16T05:59:20.767Z,5.03
2023-02-16T06:01:51.527Z,4.91
2023-02-16T06:04:20.428Z,5.16
2023-02-16T06:06:47.659Z,5.08
2023-02-16T06:09:14.387Z,5.23
2023-02-16T06:11:41.103Z,5.23
2023-02-16T06:14:10.812Z,5.20
2023-02-16T06:16:39.892Z,5.22
2023-02-16T06:19:07.428Z,5.27
2023-02-16T06:21:34.828Z,5.07
2023-02-16T06:24:01.559Z,5.19
2023-02-16T06:26:28.742Z,5.23
2023-02-16T06:28:55.896Z,5.22
2023-02-16T06:31:23.721Z,5.26
2023-02-16T06:33:50.907Z,5.35
2023-02-16T06:36:17.937Z,5.37
2023-02-16T06:38:45.518Z,5.28
2023-02-16T06:41:13.013Z,5.33
2023-02-16T06:43:39.670Z,5.31
2023-02-16T06:46:06.397Z,5.35
2023-02-16T06:48:33.262Z,5.41
2023-02-16T06:50:59.891Z,5.54
2023-02-16T06:53:26.525Z,5.45
2023-02-16T06:55:53.209Z,5.52
2023-02-16T06:58:19.866Z,5.63
2023-02-16T07:00:46.693Z,5.53
2023-02-16T07:03:13.390Z,5.49
2023-02-16T07:05:40.185Z,5.51
2023-02-16T07:08:06.789Z,5.50
2023-02-16T07:10:47.757Z,5.60
2023-02-16T07:13:15.926Z,5.49
2023-02-16T07:15:42.520Z,5.59
2023-02-16T07:18:09.238Z,5.53
2023-02-16T07:20:35.981Z,5.58
2023-02-16T07:23:02.584Z,5.54
2023-02-16T07:25:29.328Z,5.53
2023-02-16T07:27:56.207Z,5.59
2023-02-16T07:30:23.023Z,5.64
2023-02-16T07:32:49.814Z,5.59
2023-02-16T07:35:16.424Z,5.63
2023-02-16T07:37:43.121Z,5.68
2023-02-16T07:40:10.219Z,5.71
2023-02-16T07:42:36.828Z,5.88
2023-02-16T07:45:03.707Z,5.79
2023-02-16T07:47:30.336Z,5.87
2023-02-16T07:49:56.866Z,5.81
2023-02-16T07:52:25.899Z,5.89
2023-02-16T07:54:52.532Z,5.92
2023-02-16T07:57:19.103Z,5.87
2023-02-16T07:59:45.647Z,5.88
2023-02-16T08:02:17.130Z,5.94
2023-02-16T08:04:43.936Z,5.93
2023-02-16T08:07:14.460Z,6.07
2023-02-16T08:09:41.317Z,6.10
2023-02-16T08:12:10.262Z,6.19
2023-02-16T08:14:37.731Z,6.27
2023-02-16T08:17:05.757Z,6.12
2023-02-16T08:19:32.882Z,6.14
2023-02-16T08:22:00.737Z,6.26
2023-02-16T08:24:27.446Z,6.21
2023-02-16T08:26:55.964Z,6.35
2023-02-16T08:29:24.918Z,6.35
2023-02-16T08:31:52.251Z,6.40
2023-02-16T08:34:20.472Z,6.39
2023-02-16T08:36:53.647Z,6.40
2023-02-16T08:39:23.475Z,6.28
2023-02-16T08:41:50.676Z,6.39
2023-02-16T08:44:18.817Z,6.35
2023-02-16T08:46:47.800Z,6.49
2023-02-16T08:49:17.462Z,6.40
2023-02-16T08:51:47.219Z,6.41
2023-02-16T08:54:27.227Z,6.51
2023-02-16T08:56:55.935Z,6.53
2023-02-16T08:59:26.616Z,6.49
2023-02-16T09:01:54.923Z,6.52
2023-02-16T09:04:21.672Z,6.61
2023-02-16T09:06:49.098Z,6.51
2023-02-16T09:09:17.316Z,6.54
2023-02-16T09:11:44.145Z,6.47
2023-02-16T09:14:11.135Z,6.55
2023-02-16T09:16:39.827Z,6.59
2023-02-16T09:19:07.198Z,6.66
2023-02-16T09:21:33.991Z,6.73
2023-02-16T09:24:04.454Z,6.70
2023-02-16T09:26:34.001Z,6.64
2023-02-16T09:29:02.306Z,6.67
2023-02-16T09:31:32.712Z,6.73
2023-02-16T09:34:14.530Z,6.60
2023-02-16T09:36:41.787Z,6.57
2023-02-16T09:39:08.564Z,6.54
2023-02-16T09:41:41.047Z,6.51
2023-02-16T09:44:19.964Z,6.58
2023-02-16T09:46:47.195Z,6.53
2023-02-16T09:49:27.702Z,6.44
2023-02-16T09:52:11.935Z,6.46
2023-02-16T09:54:53.851Z,6.41
2023-02-16T09:57:46.236Z,6.47
2023-02-16T10:00:34.498Z,6.52
2023-02-16T10:03:19.567Z,6.59
2023-02-16T10:06:14.344Z,6.54
2023-02-16T10:08:43.646Z,6.66
2023-02-16T10:11:39.059Z,6.72
2023-02-16T10:14:13.483Z,6.82
2023-02-16T10:16:49.560Z,6.93
2023-02-16T10:19:41.489Z,6.88
2023-02-16T10:22:15.044Z,7.02
2023-02-16T10:24:53.044Z,7.13
2023-02-16T10:27:21.955Z,7.23
2023-02-16T10:29:48.830Z,7.24
2023-02-16T10:32:33.962Z,7.29
2023-02-16T10:35:36.323Z,7.34
2023-02-16T10:38:08.589Z,7.16
2023-02-16T10:40:54.961Z,7.35
2023-02-16T10:43:43.581Z,7.37
2023-02-16T10:46:14.450Z,7.47
2023-02-16T10:48:41.204Z,7.41
2023-02-16T10:51:18.309Z,7.49
2023-02-16T10:53:51.528Z,7.43
2023-02-16T10:56:40.602Z,7.67
2023-02-16T10:59:23.498Z,7.59
2023-02-16T11:01:57.587Z,7.77
2023-02-16T11:04:31.793Z,7.67
2023-02-16T11:07:06.758Z,7.79
2023-02-16T11:09:33.472Z,7.91
2023-02-16T11:12:00.989Z,7.90
2023-02-16T11:14:31.160Z,7.99
2023-02-16T11:17:16.655Z,8.28
2023-02-16T11:19:50.116Z,8.22
2023-02-16T11:22:43.268Z,8.33
2023-02-16T11:25:19.962Z,8.39
2023-02-16T11:27:59.076Z,8.64
2023-02-16T11:30:41.403Z,8.62
2023-02-16T11:33:28.531Z,8.67
2023-02-16T11:35:56.192Z,8.79
2023-02-16T11:38:35.096Z,8.63
2023-02-16T11:41:07.051Z,8.84
2023-02-16T11:43:38.386Z,9.11
2023-02-16T11:46:18.655Z,9.11
2023-02-16T11:48:46.345Z,9.34
2023-02-16T11:51:15.647Z,9.21
2023-02-16T11:53:44.704Z,9.11
2023-02-16T11:56:29.636Z,9.30
2023-02-16T11:59:21.571Z,9.49
2023-02-16T12:02:26.412Z,9.42
2023-02-16T12:05:07.604Z,9.57
2023-02-16T12:07:43.473Z,9.48
2023-02-16T12:10:48.223Z,9.69
2023-02-16T12:13:26.633Z,10.08
2023-02-16T12:16:08.858Z,9.84
2023-02-16T12:18:50.755Z,10.06
2023-02-16T12:21:46.558Z,9.81
2023-02-16T12:24:51.110Z,9.94
2023-02-16T12:27:30.472Z,10.11
2023-02-16T12:30:16.758Z,9.94
2023-02-16T12:32:57.808Z,9.89
2023-02-16T12:35:52.228Z,10.36
2023-02-16T12:38:18.847Z,10.10
2023-02-16T12:41:01.752Z,10.17
2023-02-16T12:43:43.915Z,10.52
2023-02-16T12:46:17.776Z,10.67
2023-02-16T12:48:57.151Z,10.70
2023-02-16T12:51:30.941Z,10.55
2023-02-16T12:54:04.376Z,10.50
2023-02-16T12:56:42.411Z,10.45
2023-02-16T12:59:25.002Z,10.48
2023-02-16T13:01:54.865Z,10.10
2023-02-16T13:04:25.358Z,10.14
2023-02-16T13:07:18.146Z,10.20
2023-02-16T13:10:00.831Z,10.16
2023-02-16T13:12:34.409Z,10.04
2023-02-16T13:15:21.351Z,10.11
2023-02-16T13:18:02.344Z,10.31
2023-02-16T13:20:29.365Z,10.51
2023-02-16T13:23:49.133Z,10.59
2023-02-16T13:26:35.650Z,10.88
2023-02-16T13:29:37.684Z,10.97
2023-02-16T13:32:35.425Z,10.74
2023-02-16T13:35:36.373Z,10.72
2023-02-16T13:38:24.490Z,10.89
2023-02-16T13:40:57.160Z,10.75
2023-02-16T13:43:46.398Z,10.70
2023-02-16T13:46:28.875Z,10.58
2023-02-16T13:48:56.085Z,10.72
2023-02-16T13:51:26.490Z,10.57
2023-02-16T13:53:59.455Z,10.62
2023-02-16T13:56:29.423Z,10.76
2023-02-16T13:58:58.797Z,10.84
2023-02-16T14:01:28.489Z,10.80
2023-02-16T14:03:55.183Z,10.84
2023-02-16T14:06:33.845Z,10.87
2023-02-16T14:09:12.883Z,10.97
2023-02-16T14:11:59.454Z,10.95
2023-02-16T14:14:44.420Z,10.87
2023-02-16T14:17:20.008Z,10.89
2023-02-16T14:19:55.674Z,10.90
2023-02-16T14:22:27.998Z,11.04
2023-02-16T14:24:57.267Z,11.07
2023-02-16T14:27:50.168Z,11.09
2023-02-16T14:30:47.326Z,11.04
2023-02-16T14:33:16.817Z,11.05
2023-02-16T14:36:04.852Z,10.96
2023-02-16T14:38:58.478Z,11.00
2023-02-16T14:41:36.874Z,10.95
2023-02-16T14:44:06.578Z,10.90
2023-02-16T14:46:46.392Z,10.74
2023-02-16T14:49:38.139Z,10.69
2023-02-16T14:52:25.114Z,10.60
2023-02-16T14:55:39.637Z,10.45
2023-02-16T14:58:22.137Z,10.23
2023-02-16T15:00:59.183Z,10.08
2023-02-16T15:03:38.122Z,9.97
2023-02-16T15:06:06.632Z,9.91
2023-02-16T15:08:48.631Z,9.69
2023-02-16T15:11:23.303Z,9.69
2023-02-16T15:13:53.556Z,9.63
2023-02-16T15:16:22.811Z,9.43
2023-02-16T15:18:55.904Z,9.47
2023-02-16T15:21:30.779Z,9.49
2023-02-16T15:24:00.614Z,9.45
2023-02-16T15:26:33.924Z,9.39
2023-02-16T15:29:03.565Z,9.41
2023-02-16T15:31:37.242Z,9.29
2023-02-16T15:34:08.160Z,9.23
2023-02-16T15:36:38.496Z,9.34
2023-02-16T15:39:13.554Z,9.32
2023-02-16T15:41:45.196Z,9.34
2023-02-16T15:44:35.382Z,9.34
2023-02-16T15:47:15.361Z,9.33
2023-02-16T15:49:42.850Z,9.45
2023-02-16T15:52:21.660Z,9.29
2023-02-16T15:54:49.993Z,9.20
2023-02-16T15:57:33.455Z,9.27
2023-02-16T16:00:04.146Z,9.33
2023-02-16T16:02:44.231Z,9.36
2023-02-16T16:05:22.114Z,9.30
2023-02-16T16:07:49.808Z,9.32
2023-02-16T16:10:26.255Z,9.36
2023-02-16T16:12:59.072Z,9.40
2023-02-16T16:15:29.179Z,9.38
2023-02-16T16:17:59.771Z,9.42
2023-02-16T16:20:44.723Z,9.48
2023-02-16T16:23:17.398Z,9.56
2023-02-16T16:25:46.925Z,9.55
2023-02-16T16:28:33.462Z,9.67
2023-02-16T16:31:11.910Z,9.63
2023-02-16T16:34:00.820Z,9.55
2023-02-16T16:36:36.922Z,9.57
2023-02-16T16:39:18.982Z,9.48
2023-02-16T16:41:57.839Z,9.42
2023-02-16T16:44:35.188Z,9.40
2023-02-16T16:47:31.225Z,9.44
2023-02-16T16:50:06.712Z,9.40
2023-02-16T16:52:41.654Z,9.32
2023-02-16T16:55:22.433Z,9.27
2023-02-16T16:58:00.904Z,9.22
2023-02-16T17:00:41.215Z,9.23
2023-02-16T17:03:09.472Z,9.20
2023-02-16T17:05:38.378Z,9.13
2023-02-16T17:08:05.107Z,9.15
2023-02-16T17:10:31.980Z,9.15
2023-02-16T17:13:00.185Z,9.19
2023-02-16T17:15:39.838Z,9.24
2023-02-16T17:18:09.668Z,9.28
2023-02-16T17:20:36.291Z,9.28
2023-02-16T17:23:05.007Z,9.24
2023-02-16T17:25:34.549Z,9.21
2023-02-16T17:28:01.746Z,9.30
2023-02-16T17:30:28.580Z,9.28
2023-02-16T17:32:55.450Z,9.35
2023-02-16T17:35:22.232Z,9.45
2023-02-16T17:37:49.301Z,9.49
2023-02-16T17:40:20.193Z,9.55
2023-02-16T17:42:48.504Z,9.54
2023-02-16T17:45:17.009Z,9.61
2023-02-16T17:47:45.151Z,9.59
2023-02-16T17:50:16.102Z,9.62
2023-02-16T17:52:44.305Z,9.51
2023-02-16T17:55:12.420Z,9.53
2023-02-16T17:57:39.509Z,9.41
2023-02-16T18:00:08.407Z,9.40
2023-02-16T18:02:35.314Z,9.32
2023-02-16T18:05:04.023Z,9.32
2023-02-16T18:07:30.700Z,9.22
2023-02-16T18:09:57.384Z,9.21
2023-02-16T18:12:24.272Z,9.20
2023-02-16T18:14:50.837Z,9.11
2023-02-16T18:17:17.895Z,9.13
2023-02-16T18:19:44.540Z,9.13
2023-02-16T18:22:12.839Z,9.14
2023-02-16T18:24:39.687Z,9.11
2023-02-16T18:27:06.751Z,9.23
2023-02-16T18:29:33.399Z,9.16
2023-02-16T18:32:00.270Z,9.23
2023-02-16T18:34:27.112Z,9.24
2023-02-16T18:36:53.724Z,9.23
2023-02-16T18:39:20.380Z,9.25
2023-02-16T18:41:47.022Z,9.18
2023-02-16T18:44:13.703Z,9.22
2023-02-16T18:46:40.631Z,9.26
2023-02-16T18:49:07.222Z,9.20
2023-02-16T18:51:33.818Z,9.28
2023-02-16T18:54:00.522Z,9.28
2023-02-16T18:56:27.734Z,9.29
2023-02-16T18:58:54.819Z,9.29
2023-02-16T19:01:30.754Z,9.26
2023-02-16T19:03:57.910Z,9.27
2023-02-16T19:06:25.301Z,9.31
2023-02-16T19:08:52.370Z,9.28
2023-02-16T19:11:20.130Z,9.29
2023-02-16T19:13:47.846Z,9.26
2023-02-16T19:16:16.000Z,9.26
2023-02-16T19:18:42.888Z,9.38
2023-02-16T19:21:13.178Z,9.31
2023-02-16T19:23:40.740Z,9.30
2023-02-16T19:26:11.027Z,9.32
2023-02-16T19:28:38.592Z,9.30
2023-02-16T19:31:07.710Z,9.26
2023-02-16T19:33:35.254Z,9.30
2023-02-16T19:36:08.562Z,9.30
2023-02-16T19:38:35.271Z,9.22
2023-02-16T19:41:08.832Z,9.28
2023-02-16T19:43:35.431Z,9.31
2023-02-16T19:46:06.002Z,9.30
2023-02-16T19:48:33.705Z,9.28
2023-02-16T19:51:01.830Z,9.28
2023-02-16T19:53:29.030Z,9.31
2023-02-16T19:55:55.640Z,9.40
2023-02-16T19:58:22.713Z,9.35
2023-02-16T20:00:49.678Z,9.36
2023-02-16T20:03:17.300Z,9.25
2023-02-16T20:05:44.368Z,9.42
2023-02-16T20:08:11.542Z,9.40
2023-02-16T20:10:44.364Z,9.41
2023-02-16T20:13:11.293Z,9.40
2023-02-16T20:15:38.043Z,9.45
2023-02-16T20:18:06.278Z,9.39
2023-02-16T20:20:33.630Z,9.42
2023-02-16T20:23:00.346Z,9.45
2023-02-16T20:25:27.218Z,9.43
2023-02-16T20:27:58.273Z,9.40
2023-02-16T20:30:26.751Z,9.42
2023-02-16T20:32:54.034Z,9.44
2023-02-16T20:35:20.756Z,9.41
2023-02-16T20:37:47.360Z,9.45
2023-02-16T20:40:14.281Z,9.47
2023-02-16T20:42:40.937Z,9.39
2023-02-16T20:45:08.025Z,9.44
2023-02-16T20:47:34.676Z,9.49
2023-02-16T20:50:01.568Z,9.48
2023-02-16T20:52:28.365Z,9.45
2023-02-16T20:54:55.137Z,9.47
2023-02-16T20:57:27.207Z,9.53
2023-02-16T20:59:54.931Z,9.47
2023-02-16T21:02:21.613Z,9.57
2023-02-16T21:04:48.234Z,9.49
2023-02-16T21:07:14.820Z,9.53
2023-02-16T21:09:41.533Z,9.47
2023-02-16T21:12:08.248Z,9.42
2023-02-16T21:14:34.966Z,9.57
2023-02-16T21:17:01.737Z,9.53
2023-02-16T21:19:28.319Z,9.47
2023-02-16T21:21:55.062Z,9.55
2023-02-16T21:24:21.821Z,9.55
2023-02-16T21:26:50.091Z,9.53
2023-02-16T21:29:17.602Z,9.59
2023-02-16T21:31:44.298Z,9.56
2023-02-16T21:34:11.006Z,9.57
2023-02-16T21:36:38.872Z,9.59
2023-02-16T21:39:05.884Z,9.53
2023-02-16T21:41:32.999Z,9.57
2023-02-16T21:44:02.337Z,9.51
2023-02-16T21:46:36.454Z,9.52
2023-02-16T21:49:04.707Z,9.46
2023-02-16T21:51:34.223Z,9.51
2023-02-16T21:54:01.414Z,9.49
2023-02-16T21:56:39.382Z,9.51
2023-02-16T21:59:09.154Z,9.47
2023-02-16T22:01:39.589Z,9.37
2023-02-16T22:04:06.569Z,9.32
2023-02-16T22:06:40.949Z,9.30
2023-02-16T22:09:11.851Z,9.38
2023-02-16T22:11:39.030Z,9.31
2023-02-16T22:14:06.236Z,9.33
2023-02-16T22:16:35.005Z,9.37
2023-02-16T22:19:12.355Z,9.40
2023-02-16T22:21:41.523Z,9.41
2023-02-16T22:24:10.998Z,9.34
2023-02-16T22:26:37.683Z,9.39
2023-02-16T22:29:06.797Z,9.43
2023-02-16T22:31:35.826Z,9.45
2023-02-16T22:34:07.756Z,9.42
2023-02-16T22:36:35.775Z,9.47
2023-02-16T22:39:02.571Z,9.52
2023-02-16T22:41:29.390Z,9.53
2023-02-16T22:43:56.774Z,9.63
2023-02-16T22:46:24.698Z,9.61
2023-02-16T22:48:52.142Z,9.60
2023-02-16T22:51:21.311Z,9.66
2023-02-16T22:53:48.424Z,9.67
2023-02-16T22:56:20.523Z,9.73
2023-02-16T22:58:47.590Z,9.70
2023-02-16T23:01:17.243Z,9.63
2023-02-16T23:03:47.407Z,9.75
2023-02-16T23:06:15.781Z,9.62
2023-02-16T23:08:43.362Z,9.75
2023-02-16T23:11:10.757Z,9.72
2023-02-16T23:13:38.627Z,9.75
2023-02-16T23:16:08.564Z,9.75
2023-02-16T23:18:35.462Z,9.70
2023-02-16T23:21:22.525Z,9.74
2023-02-16T23:23:51.517Z,9.73
2023-02-16T23:26:19.606Z,9.76
2023-02-16T23:28:50.581Z,9.79
2023-02-16T23:31:17.864Z,9.77
2023-02-16T23:33:44.721Z,9.77
2023-02-16T23:36:11.521Z,9.68
2023-02-16T23:38:38.181Z,9.77
2023-02-16T23:41:07.618Z,9.74
2023-02-16T23:43:34.355Z,9.72
2023-02-16T23:46:01.625Z,9.73
2023-02-16T23:48:28.992Z,9.66
2023-02-16T23:50:55.735Z,9.66
2023-02-16T23:53:24.436Z,9.68
2023-02-16T23:56:02.056Z,9.69
2023-02-16T23:58:30.797Z,9.72
